Latest Weather Observations for Stawell

IDV60801

Issued at 10:02 pm EDT Monday 2 March 2015 (issued every 30 minutes, with the page automatically refreshed every 10 minutes)

About weather observations | Map of weather stations | Latest weather observations for VIC | Other Formats
Station Details ID: 079105 Name: STAWELL AERODROME Lat: -37.07 Lon: 142.74 Height: 235.36 m
Data from the previous 72 hours. | See also: Recent months at Stawell
Date/Time
EDT
Temp
°C
App
Temp
°C
Dew
Point
Rel
Hum
%
Delta-T
°C
Wind Press
QNH
hPa
Press
MSL
hPa
Rain
since 9 am
mm
Dir
 
Spd
km/h
Gust
km/h
Spd
kts
Gust
kts
02/10:00pm 18.3 14.6 6.5 46 5.9 S 15 28 8 15 1014.4 - 0.0
02/09:30pm 19.4 15.2 5.8 41 6.8 SSE 17 24 9 13 1013.9 - 0.0
02/09:00pm 20.1 15.0 6.1 40 7.1 S 22 30 12 16 1014.3 1014.5 0.0
02/08:30pm 21.7 18.9 2.9 29 9.0 WSW 7 9 4 5 1014.2 - 0.0
02/08:00pm 22.3 19.3 1.9 26 9.6 W 7 11 4 6 1014.0 - 0.0
02/07:30pm 23.2 20.0 -0.3 21 10.7 WNW 6 7 3 4 1013.6 - 0.0
02/07:00pm 23.7 19.7 -2.0 18 11.4 W 9 13 5 7 1013.1 - 0.0
02/06:30pm 24.3 20.7 -2.3 17 11.8 S 7 17 4 9 1012.7 - 0.0
02/06:00pm 24.6 20.5 -2.9 16 12.1 NW 9 13 5 7 1013.0 1013.3 0.0
02/05:30pm 24.2 20.2 -5.9 13 12.5 W 7 11 4 6 1013.0 - 0.0
02/05:00pm 24.4 20.3 -6.8 12 12.7 NW 7 13 4 7 1012.9 - 0.0
02/04:30pm 24.6 19.4 -6.7 12 12.8 WNW 13 17 7 9 1013.0 - 0.0
02/04:00pm 24.3 20.5 -5.8 13 12.5 SE 6 9 3 5 1012.8 - 0.0
02/03:30pm 24.6 19.8 -5.6 13 12.6 NW 11 19 6 10 1013.7 - 0.0
02/03:00pm 24.2 20.4 -4.0 15 12.1 NNW 7 13 4 7 1013.9 1014.1 0.0
02/02:30pm 22.9 18.7 -4.2 16 11.4 SSW 9 15 5 8 1014.4 - 0.0
02/02:00pm 23.2 18.5 -4.8 15 11.7 NW 11 17 6 9 1015.1 - 0.0
02/01:30pm 21.9 18.3 -2.0 20 10.4 NNW 7 13 4 7 1014.9 - 0.0
02/01:00pm 20.7 16.9 -0.6 24 9.5 NW 9 17 5 9 1015.9 - 0.0
02/12:30pm 20.0 16.9 -0.1 26 9.0 NW 6 13 3 7 1016.4 - 0.0
02/12:00pm 18.7 15.1 0.3 29 8.2 N 9 19 5 10 1016.8 1017.1 0.0
02/11:30am 18.2 14.4 -0.6 28 8.2 N 9 19 5 10 1017.1 - 0.0
02/11:00am 17.6 15.2 4.5 42 6.3 NNE 6 13 3 7 1017.1 - 0.0
02/10:30am 16.0 14.0 6.2 52 4.8 N 6 7 3 4 1017.1 - 0.0
02/10:00am 15.2 13.7 6.7 57 4.2 E 4 9 2 5 1017.2 - 0.0
02/09:30am 13.3 12.7 7.5 68 2.9 CALM 0 6 0 3 1017.4 - 0.0
02/09:00am 11.9 10.1 7.2 73 2.3 SSW 6 7 3 4 1017.3 1017.6 0.2
02/08:30am 10.6 9.3 7.5 81 1.5 SSW 4 11 2 6 1017.3 - 0.2
02/08:00am 9.1 8.5 7.2 88 0.9 CALM 0 6 0 3 1017.1 - 0.2
02/07:30am 8.4 6.5 6.9 90 0.7 SSE 6 9 3 5 1016.8 - 0.2
02/07:00am 8.0 5.5 6.6 91 0.7 SSW 9 13 5 7 1016.6 - 0.2
02/06:30am 7.5 4.9 6.1 91 0.6 SSW 9 13 5 7 1016.3 - 0.2
02/06:00am 7.3 5.0 5.9 91 0.6 S 7 9 4 5 1016.3 1016.6 0.2
02/05:30am 6.6 4.2 5.4 92 0.5 SSE 7 13 4 7 1016.3 - 0.2
02/05:00am 6.7 5.6 5.3 91 0.6 CALM 0 0 0 0 1016.2 - 0.2
02/04:30am 7.8 5.7 6.6 92 0.6 SSW 7 9 4 5 1016.0 - 0.2
02/04:00am 7.8 6.5 5.9 88 0.9 SSW 2 7 1 4 1016.2 - 0.2
02/03:30am 9.2 6.8 6.8 85 1.1 SSW 9 11 5 6 1016.5 - 0.2
02/03:00am 11.2 8.5 7.3 77 1.9 SSE 11 17 6 9 1016.6 1016.9 0.2
02/02:30am 11.3 8.6 7.4 77 1.9 SSE 11 15 6 8 1016.7 - 0.2
02/02:00am 11.6 8.5 7.1 74 2.2 SSE 13 20 7 11 1017.3 - 0.2
02/01:30am 11.9 8.8 7.2 73 2.3 SSE 13 17 7 9 1017.9 - 0.2
02/01:00am 11.8 9.5 7.3 74 2.2 S 9 17 5 9 1018.2 - 0.2
02/12:30am 12.4 9.0 7.7 73 2.3 SSE 15 20 8 11 1017.6 - 0.2
02/12:00am 12.9 10.4 8.0 72 2.4 SSE 11 17 6 9 1018.1 1018.3 0.2
 
Date/Time
EDT
Temp
°C
App
Temp
°C
Dew
Point
Rel
Hum
%
Delta-T
°C
Wind Press
QNH
hPa
Press
MSL
hPa
Rain
since 9 am
mm
Dir
 
Spd
km/h
Gust
km/h
Spd
kts
Gust
kts
01/11:30pm 13.2 11.1 8.1 71 2.6 SSE 9 17 5 9 1018.1 - 0.2
01/11:00pm 13.7 11.2 8.1 69 2.8 S 11 20 6 11 1018.2 - 0.2
01/10:30pm 14.4 9.9 8.4 67 3.1 SSE 22 32 12 17 1017.5 - 0.2
01/10:00pm 15.0 10.4 8.3 64 3.4 SSE 22 35 12 19 1016.9 - 0.2
01/09:30pm 15.7 11.6 8.0 60 3.9 SSE 19 30 10 16 1016.7 - 0.2
01/09:00pm 16.6 12.5 7.8 56 4.5 SSE 19 24 10 13 1016.6 1016.9 0.2
01/08:30pm 17.2 12.8 7.5 53 4.9 S 20 28 11 15 1016.4 - 0.2
01/08:00pm 18.1 13.7 7.5 50 5.4 S 20 30 11 16 1015.8 - 0.2
01/07:30pm 18.9 13.6 6.7 45 6.2 S 24 33 13 18 1015.6 - 0.2
01/07:00pm 19.6 14.3 6.7 43 6.6 S 24 37 13 20 1015.1 - 0.2
01/06:30pm 20.2 15.4 7.2 43 6.7 S 22 28 12 15 1015.1 - 0.2
01/06:00pm 21.8 17.0 7.2 39 7.6 SSE 22 35 12 19 1014.9 1015.2 0.2
01/05:30pm 22.1 16.5 7.1 38 7.8 SSE 26 37 14 20 1014.6 - 0.2
01/05:00pm 22.1 16.5 7.1 38 7.8 S 26 39 14 21 1014.5 - 0.2
01/04:30pm 21.5 16.2 7.0 39 7.5 S 24 39 13 21 1014.4 - 0.2
01/04:00pm 21.8 16.0 6.1 36 8.0 S 26 37 14 20 1014.2 - 0.2
01/03:30pm 22.3 17.1 5.7 34 8.4 S 22 37 12 20 1014.2 - 0.2
01/03:00pm 20.8 16.0 7.4 42 7.0 S 22 39 12 21 1014.5 1014.7 0.2
01/02:30pm 20.2 15.3 8.5 47 6.2 S 24 33 13 18 1014.5 - 0.2
01/02:00pm 20.7 16.0 9.3 48 6.1 SSE 24 35 13 19 1014.3 - 0.2
01/01:30pm 19.8 15.7 10.2 54 5.2 S 22 33 12 18 1014.5 - 0.2
01/01:00pm 19.7 14.6 9.3 51 5.6 S 26 33 14 18 1014.3 - 0.2
01/12:30pm 19.4 15.0 9.0 51 5.5 S 22 33 12 18 1014.4 - 0.2
01/12:00pm 18.8 15.2 10.6 59 4.5 S 20 32 11 17 1014.4 1014.6 0.0
01/11:30am 17.8 14.0 9.9 60 4.2 S 20 33 11 18 1014.3 - 0.0
01/11:00am 17.6 14.0 10.5 63 3.8 S 20 32 11 17 1013.8 - 0.0
01/10:30am 17.0 13.4 10.6 66 3.5 SSE 20 28 11 15 1013.4 - 0.0
01/10:00am 16.4 13.0 10.5 68 3.2 S 19 30 10 16 1013.0 - 0.0
01/09:30am 15.8 11.8 10.6 71 2.8 S 22 32 12 17 1012.5 - 0.0
01/09:00am 15.2 13.1 11.2 77 2.2 S 13 20 7 11 1012.1 1012.4 3.2
01/08:30am 14.7 12.6 11.3 80 1.8 S 13 20 7 11 1011.6 - 3.2
01/08:00am 13.8 12.9 11.3 85 1.3 SSW 7 11 4 6 1011.1 - 3.2
01/07:30am 13.0 12.1 11.2 89 1.0 SSW 7 9 4 5 1010.5 - 3.2
01/07:00am 13.0 11.6 10.9 87 1.1 SSW 9 13 5 7 1010.0 - 3.2
01/06:30am 13.0 11.7 11.1 88 1.0 S 9 13 5 7 1009.6 - 3.2
01/06:00am 12.5 11.4 10.7 89 0.9 SSW 7 9 4 5 1009.2 1009.4 3.2
01/05:30am 12.9 11.5 11.0 88 1.0 SSW 9 13 5 7 1008.9 - 3.2
01/05:00am 13.0 11.6 10.9 87 1.1 SSW 9 15 5 8 1008.4 - 3.2
01/04:30am 13.6 12.6 10.9 84 1.4 SSW 7 13 4 7 1008.1 - 3.2
01/04:00am 14.1 11.9 10.9 81 1.7 S 13 19 7 10 1007.7 - 3.2
01/03:30am 14.7 11.2 10.1 74 2.4 S 19 26 10 14 1007.6 - 3.2
01/03:00am 14.3 10.9 10.7 79 1.9 S 19 26 10 14 1007.7 1008.0 3.2
01/02:30am 14.4 10.8 10.4 77 2.1 S 20 33 11 18 1007.4 - 3.2
01/02:00am 14.7 11.0 11.5 81 1.7 S 22 35 12 19 1007.4 - 3.2
01/01:30am 15.3 12.3 12.6 84 1.5 S 20 35 11 19 1007.0 - 3.2
01/01:00am 15.9 12.9 13.7 87 1.3 S 22 32 12 17 1006.8 - 3.2
01/12:30am 17.2 14.8 15.5 90 1.0 S 22 35 12 19 1006.3 - 3.2
01/12:00am 17.7 16.3 15.5 87 1.3 S 17 28 9 15 1006.1 1006.3 3.2
 
Date/Time
EDT
Temp
°C
App
Temp
°C
Dew
Point
Rel
Hum
%
Delta-T
°C
Wind Press
QNH
hPa
Press
MSL
hPa
Rain
since 9 am
mm
Dir
 
Spd
km/h
Gust
km/h
Spd
kts
Gust
kts
28/11:30pm 18.3 16.6 16.3 88 1.2 S 20 30 11 16 1005.9 - 3.2
28/11:00pm 18.7 17.4 16.7 88 1.2 S 19 32 10 17 1005.4 - 3.2
28/10:30pm 19.1 18.2 16.9 87 1.3 S 17 26 9 14 1005.0 - 3.2
28/10:00pm 19.3 19.3 18.0 92 0.8 SE 15 20 8 11 1004.9 - 3.2
28/09:30pm 19.4 20.4 17.7 90 1.1 S 9 15 5 8 1004.2 - 3.2
28/09:00pm 19.4 19.9 17.5 89 1.2 SW 11 20 6 11 1004.6 1004.5 3.2
28/08:30pm 19.7 19.6 17.8 89 1.2 SW 15 24 8 13 1004.6 - 2.8
28/08:00pm 20.8 20.4 18.0 84 1.8 WSW 17 26 9 14 1004.1 - 1.4
28/07:30pm 20.8 19.6 18.4 86 1.5 S 22 33 12 18 1002.9 - 1.0
28/07:00pm 21.4 19.4 18.2 82 2.0 S 26 50 14 27 1002.9 - 0.6
28/06:51pm 22.4 19.2 17.3 73 3.2 SW 30 48 16 26 1002.9 - 0.4
28/06:44pm 23.6 19.7 16.4 64 4.4 SW 32 56 17 30 1002.5 - 0.4
28/06:34pm 26.2 19.8 14.3 48 7.2 W 41 67 22 36 1002.2 - 0.4
28/06:30pm 24.7 22.6 14.8 54 6.0 W 19 57 10 31 1001.5 - 0.4
28/06:23pm 25.8 18.7 13.3 46 7.4 W 43 61 23 33 1000.6 - 0.2
28/06:20pm 31.6 23.3 9.2 25 12.7 WNW 43 61 23 33 999.2 - 0.0
28/06:00pm 33.7 29.9 7.6 20 14.7 W 17 33 9 18 998.5 998.4 0.0
28/05:30pm 33.7 28.6 7.6 20 14.6 W 24 35 13 19 999.0 - 0.0
28/05:00pm 33.6 28.1 7.5 20 14.6 WNW 26 39 14 21 999.5 - 0.0
28/04:30pm 34.2 28.4 8.0 20 14.8 NNW 28 43 15 23 999.9 - 0.0
28/04:00pm 33.8 28.7 7.7 20 14.6 WNW 24 37 13 20 1000.4 - 0.0
28/03:30pm 33.7 26.5 7.6 20 14.6 NW 35 54 19 29 1000.9 - 0.0
28/03:20pm 34.1 27.8 7.2 19 15.0 NW 30 61 16 33 1001.0 - 0.0
28/03:00pm 32.9 26.5 7.0 20 14.4 NNW 30 44 16 24 1001.6 1001.5 0.0
28/02:30pm 31.9 26.2 6.9 21 13.7 N 26 37 14 20 1002.4 - 0.0
28/02:00pm 31.7 26.3 8.0 23 13.2 N 26 37 14 20 1002.9 - 0.0
28/01:30pm 29.6 23.7 9.2 28 11.5 N 30 41 16 22 1003.6 - 0.0
28/01:00pm 28.6 23.9 9.3 30 10.8 N 24 37 13 20 1004.3 - 0.0
28/12:30pm 26.3 22.6 9.6 35 9.3 NNE 19 30 10 16 1004.9 - 0.0
28/12:00pm 25.7 21.8 9.5 36 9.0 N 20 28 11 15 1005.6 1005.5 0.0
28/11:30am 26.5 22.7 9.8 35 9.3 N 20 33 11 18 1005.7 - 0.0
28/11:00am 24.9 22.2 11.8 44 7.5 N 17 24 9 13 1005.9 - 0.0
28/10:30am 23.6 20.2 10.6 44 7.3 NNE 19 24 10 13 1005.9 - 0.0
28/10:00am 22.3 22.8 12.8 55 5.5 SSW 2 7 1 4 1006.0 - 0.0
28/09:30am 21.4 21.4 14.1 63 4.3 SW 7 9 4 5 1006.3 - 0.0
28/09:00am 19.4 20.8 14.4 73 2.9 CALM 0 0 0 0 1006.3 1006.2 0.2
28/08:30am 18.6 19.2 14.3 76 2.5 SE 4 7 2 4 1006.3 - 0.2
28/08:00am 18.1 19.1 14.2 78 2.3 W 2 9 1 5 1006.4 - 0.2
28/07:30am 18.0 18.2 14.1 78 2.3 W 6 9 3 5 1006.0 - 0.2
28/07:00am 18.4 18.6 14.3 77 2.4 SE 6 7 3 4 1005.5 - 0.2
28/06:30am 18.1 17.5 14.6 80 2.0 E 11 17 6 9 1005.4 - 0.2
28/06:00am 17.8 18.1 15.1 84 1.6 E 7 9 4 5 1006.3 1006.2 0.2
28/05:30am 18.0 17.7 13.3 74 2.7 WSW 7 13 4 7 1006.8 - 0.0
28/05:00am 18.9 18.5 12.4 66 3.7 N 6 7 3 4 1006.2 - 0.0
28/04:30am 18.9 19.6 12.2 65 3.8 CALM 0 0 0 0 1006.3 - 0.0
28/04:00am 18.8 18.7 12.1 65 3.8 N 4 7 2 4 1006.6 - 0.0
28/03:30am 18.8 17.7 12.1 65 3.8 NW 9 13 5 7 1006.9 - 0.0
28/03:00am 19.7 18.8 11.5 59 4.6 W 7 11 4 6 1006.4 1006.3 0.0
28/02:30am 20.0 16.8 12.0 60 4.5 SE 20 30 11 16 1006.0 - 0.0
28/02:22am 19.8 16.8 11.8 60 4.5 ESE 19 26 10 14 1005.7 - 0.0
28/02:00am 19.3 19.6 12.3 64 3.9 SSW 2 7 1 4 1007.8 - 0.0
28/01:30am 19.0 19.0 12.3 65 3.8 SW 4 7 2 4 1008.1 - 0.0
28/01:00am 19.2 18.6 12.2 64 3.9 WSW 7 11 4 6 1008.9 - 0.0
28/12:30am 19.3 18.7 11.8 62 4.2 SSW 6 7 3 4 1008.8 - 0.0
28/12:00am 19.6 18.9 11.9 61 4.3 SSW 7 11 4 6 1009.3 1009.2 0.0
 
Date/Time
EDT
Temp
°C
App
Temp
°C
Dew
Point
Rel
Hum
%
Delta-T
°C
Wind Press
QNH
hPa
Press
MSL
hPa
Rain
since 9 am
mm
Dir
 
Spd
km/h
Gust
km/h
Spd
kts
Gust
kts
27/11:30pm 20.2 19.3 11.4 57 4.9 SSW 7 13 4 7 1009.3 - 0.0
27/11:00pm 20.5 19.2 11.2 55 5.2 S 9 15 5 8 1009.5 - 0.0
27/10:30pm 20.8 18.3 10.9 53 5.5 S 15 24 8 13 1009.4 - 0.0

Other Formats:

Comma delimited format used in spreadsheet applications
http://www.bom.gov.au/fwo/IDV60801/IDV60801.94836.axf

JavaScript Object Notation format (JSON) in row-major order
http://www.bom.gov.au/fwo/IDV60801/IDV60801.94836.json